Time;durP1;ratioP1;P1;durP2;ratioP2;P2;SDS_P1;SDS_P2;PMS_P1;PMS_P2;Temp;Humidity;BMP_temperature;BMP_pressure;BME280_temperature;BME280_humidity;BME280_pressure;Samples;Min_cycle;Max_cycle;Signal;HPM_P1;HPM_P2
2022/03/27 00:01:34;;;;;;;11.53;8.13;;;;;;;;;;5061032;28;20256;-89
2022/03/27 00:04:01;;;;;;;19.60;9.70;;;;;;;;;;5049840;28;20221;-89
2022/03/27 00:06:28;;;;;;;13.73;8.57;;;;;;;;;;5049492;28;20205;-89
2022/03/27 00:08:56;;;;;;;15.87;8.13;;;;;;;;;;5040917;28;20624;-89
2022/03/27 00:11:27;;;;;;;18.77;8.27;;;;;;;;;;5055088;28;20206;-89
2022/03/27 00:13:57;;;;;;;13.40;8.50;;;;;;;;;;5048756;28;20574;-89
2022/03/27 00:16:24;;;;;;;12.83;9.23;;;;;;;;;;5040573;28;20230;-89
2022/03/27 00:18:51;;;;;;;13.60;8.37;;;;;;;;;;5053037;28;20299;-89
2022/03/27 00:21:20;;;;;;;22.03;10.33;;;;;;;;;;5060432;28;20221;-89
2022/03/27 00:23:47;;;;;;;11.10;7.90;;;;;;;;;;5058551;28;20686;-89
2022/03/27 00:26:15;;;;;;;18.03;9.13;;;;;;;;;;5047975;28;20263;-89
2022/03/27 00:28:42;;;;;;;16.17;8.70;;;;;;;;;;5060751;28;20772;-89
2022/03/27 00:31:12;;;;;;;15.57;8.50;;;;;;;;;;5048630;28;20260;-89
2022/03/27 00:33:40;;;;;;;16.90;9.23;;;;;;;;;;5042963;28;20236;-89
2022/03/27 00:36:10;;;;;;;14.93;8.20;;;;;;;;;;5053619;28;20266;-89
2022/03/27 00:38:37;;;;;;;16.97;8.77;;;;;;;;;;5060311;28;20292;-89
2022/03/27 00:41:05;;;;;;;15.03;8.83;;;;;;;;;;5066020;28;20225;-90
2022/03/27 00:43:33;;;;;;;16.43;9.60;;;;;;;;;;5044449;28;20207;-89
2022/03/27 00:46:01;;;;;;;17.63;9.70;;;;;;;;;;5058241;28;20273;-89
2022/03/27 00:48:31;;;;;;;16.70;8.97;;;;;;;;;;5068196;28;20263;-89
2022/03/27 00:50:58;;;;;;;14.27;6.97;;;;;;;;;;5062426;28;20201;-89
2022/03/27 00:53:25;;;;;;;17.17;8.17;;;;;;;;;;5038695;28;20685;-89
2022/03/27 00:55:52;;;;;;;17.03;9.37;;;;;;;;;;5047009;28;20250;-89
2022/03/27 00:58:19;;;;;;;14.13;8.90;;;;;;;;;;5069021;28;20625;-89
2022/03/27 01:00:51;;;;;;;24.00;10.13;;;;;;;;;;5049531;28;20218;-89
2022/03/27 01:03:20;;;;;;;20.30;11.13;;;;;;;;;;5041670;28;20306;-89
2022/03/27 01:05:49;;;;;;;18.20;9.47;;;;;;;;;;5055714;28;20228;-89
2022/03/27 01:09:35;;;;;;;15.37;9.13;;;;;;;;;;5068216;28;20193;-89
2022/03/27 01:11:09;;;;;;;16.70;8.67;;;;;;;;;;5046170;28;20688;-89
2022/03/27 01:13:36;;;;;;;12.30;8.37;;;;;;;;;;5060679;28;20205;-89
2022/03/27 01:16:03;;;;;;;14.20;8.43;;;;;;;;;;5067806;28;20201;-89
2022/03/27 01:18:31;;;;;;;18.13;8.27;;;;;;;;;;5054249;28;20259;-89
2022/03/27 01:20:59;;;;;;;15.53;8.37;;;;;;;;;;5056228;28;20322;-89
2022/03/27 01:23:26;;;;;;;17.97;8.53;;;;;;;;;;5048098;28;20202;-89
2022/03/27 01:25:54;;;;;;;14.43;8.27;;;;;;;;;;5044372;28;20291;-89
2022/03/27 01:28:21;;;;;;;15.40;9.40;;;;;;;;;;5054037;28;20229;-89
2022/03/27 01:30:48;;;;;;;17.03;8.40;;;;;;;;;;5050559;28;20665;-89
2022/03/27 01:33:15;;;;;;;15.27;8.73;;;;;;;;;;5050107;28;20233;-89
2022/03/27 01:35:42;;;;;;;17.77;8.23;;;;;;;;;;5056875;28;20256;-89
2022/03/27 01:38:11;;;;;;;19.13;9.33;;;;;;;;;;5071928;28;20217;-89
2022/03/27 01:40:38;;;;;;;23.57;14.03;;;;;;;;;;5072166;28;20263;-89
2022/03/27 01:43:06;;;;;;;17.60;10.80;;;;;;;;;;5071504;28;20197;-89
2022/03/27 01:45:33;;;;;;;20.23;9.53;;;;;;;;;;5047712;28;20643;-89
2022/03/27 01:48:00;;;;;;;19.50;9.47;;;;;;;;;;5060804;28;20217;-89
2022/03/27 01:50:27;;;;;;;17.47;9.37;;;;;;;;;;5072290;28;20330;-89
2022/03/27 01:52:54;;;;;;;17.50;9.60;;;;;;;;;;5058130;28;20214;-89
2022/03/27 01:55:23;;;;;;;18.40;9.83;;;;;;;;;;5043192;28;20248;-90
2022/03/27 01:57:50;;;;;;;13.97;8.77;;;;;;;;;;5062107;28;20206;-89
2022/03/27 02:00:18;;;;;;;18.53;9.33;;;;;;;;;;5044977;28;20265;-89
2022/03/27 02:02:45;;;;;;;21.83;9.47;;;;;;;;;;5047250;28;20206;-89
2022/03/27 02:05:13;;;;;;;18.70;9.07;;;;;;;;;;5063103;28;20225;-89
2022/03/27 02:07:42;;;;;;;16.57;8.83;;;;;;;;;;5071345;28;20303;-89
2022/03/27 02:10:10;;;;;;;15.63;8.80;;;;;;;;;;5054045;28;20206;-89
2022/03/27 02:12:39;;;;;;;17.30;7.67;;;;;;;;;;5053153;28;20202;-89
2022/03/27 02:15:06;;;;;;;13.87;8.47;;;;;;;;;;5051387;28;20704;-89
2022/03/27 02:17:33;;;;;;;15.07;8.67;;;;;;;;;;5049195;28;20296;-89
2022/03/27 02:20:01;;;;;;;15.83;10.03;;;;;;;;;;5053269;28;20629;-89
2022/03/27 02:22:28;;;;;;;15.00;8.73;;;;;;;;;;5071373;28;21002;-89
2022/03/27 02:24:55;;;;;;;15.37;8.33;;;;;;;;;;5071092;28;20280;-89
2022/03/27 02:27:22;;;;;;;21.47;9.53;;;;;;;;;;5058145;28;20217;-89
2022/03/27 02:29:52;;;;;;;15.40;9.33;;;;;;;;;;5061302;28;20206;-90
2022/03/27 02:32:19;;;;;;;18.50;10.43;;;;;;;;;;5051105;28;20283;-89
2022/03/27 02:34:46;;;;;;;16.60;8.97;;;;;;;;;;5051006;28;20301;-89
2022/03/27 02:37:14;;;;;;;15.60;8.80;;;;;;;;;;5047517;28;20213;-89
2022/03/27 02:39:43;;;;;;;14.23;8.00;;;;;;;;;;5042011;28;20210;-89
2022/03/27 02:42:10;;;;;;;14.67;8.30;;;;;;;;;;5049905;28;20228;-89
2022/03/27 02:44:37;;;;;;;20.13;8.97;;;;;;;;;;5064452;28;20218;-89
2022/03/27 02:47:07;;;;;;;14.67;8.63;;;;;;;;;;5071045;28;20206;-89
2022/03/27 02:49:35;;;;;;;11.27;7.73;;;;;;;;;;5047513;28;20206;-89
2022/03/27 02:52:02;;;;;;;15.47;8.87;;;;;;;;;;5066470;28;20721;-89
2022/03/27 02:54:29;;;;;;;12.50;8.20;;;;;;;;;;5050301;28;20233;-89
2022/03/27 02:56:57;;;;;;;22.60;11.87;;;;;;;;;;5051150;28;20583;-89
2022/03/27 02:59:25;;;;;;;15.80;9.57;;;;;;;;;;5046213;28;20208;-89
2022/03/27 03:01:52;;;;;;;15.73;9.27;;;;;;;;;;5056023;28;20222;-89
2022/03/27 03:04:21;;;;;;;13.70;8.10;;;;;;;;;;5049950;28;20317;-89
2022/03/27 03:06:49;;;;;;;15.60;8.83;;;;;;;;;;5044425;28;20217;-89
2022/03/27 03:09:17;;;;;;;14.40;9.03;;;;;;;;;;5039952;28;20675;-89
2022/03/27 03:11:44;;;;;;;14.23;8.23;;;;;;;;;;5053553;28;20229;-89
2022/03/27 03:14:12;;;;;;;18.27;8.83;;;;;;;;;;5046451;28;20230;-89
2022/03/27 03:16:39;;;;;;;18.73;8.30;;;;;;;;;;5040924;28;20525;-89
2022/03/27 03:19:07;;;;;;;14.90;8.70;;;;;;;;;;5052814;28;20201;-89
2022/03/27 03:21:36;;;;;;;13.83;8.40;;;;;;;;;;5070059;28;20417;-89
2022/03/27 03:24:03;;;;;;;17.60;8.57;;;;;;;;;;5055057;28;20233;-90
2022/03/27 03:26:30;;;;;;;25.93;13.67;;;;;;;;;;5047234;28;20210;-89
2022/03/27 03:28:58;;;;;;;18.63;9.30;;;;;;;;;;5067808;28;20229;-89
2022/03/27 03:31:25;;;;;;;16.63;9.00;;;;;;;;;;5061546;28;20297;-89
2022/03/27 03:33:52;;;;;;;23.17;13.10;;;;;;;;;;5045281;28;20230;-90
2022/03/27 03:36:19;;;;;;;18.93;10.07;;;;;;;;;;5058083;28;20225;-89
2022/03/27 03:38:48;;;;;;;16.47;8.67;;;;;;;;;;5049705;28;20255;-89
2022/03/27 03:41:16;;;;;;;14.87;8.67;;;;;;;;;;5045579;28;20222;-89
2022/03/27 03:43:43;;;;;;;17.27;8.73;;;;;;;;;;5065074;28;20228;-90
2022/03/27 03:46:11;;;;;;;16.77;8.63;;;;;;;;;;5070075;28;20271;-89
2022/03/27 03:48:39;;;;;;;14.37;8.57;;;;;;;;;;5069740;28;20205;-89
2022/03/27 03:51:07;;;;;;;18.67;8.20;;;;;;;;;;5046893;28;20197;-89
2022/03/27 03:53:34;;;;;;;17.43;8.40;;;;;;;;;;5044060;28;20202;-89
2022/03/27 03:56:05;;;;;;;14.67;8.90;;;;;;;;;;5049645;28;20301;-89
2022/03/27 03:58:32;;;;;;;12.47;7.30;;;;;;;;;;5034482;28;20207;-89
2022/03/27 04:00:59;;;;;;;14.20;8.57;;;;;;;;;;5045973;28;20337;-90
2022/03/27 04:03:26;;;;;;;15.23;8.87;;;;;;;;;;5055128;28;20198;-89
2022/03/27 04:05:53;;;;;;;15.23;8.27;;;;;;;;;;5049592;28;20663;-89
2022/03/27 04:08:21;;;;;;;13.23;7.20;;;;;;;;;;5043660;28;20201;-89
2022/03/27 04:10:48;;;;;;;11.87;7.57;;;;;;;;;;5067387;28;20801;-89
2022/03/27 04:13:17;;;;;;;13.80;8.20;;;;;;;;;;5069183;28;20202;-89
2022/03/27 04:15:46;;;;;;;18.37;8.20;;;;;;;;;;5049979;28;20698;-89
2022/03/27 04:18:14;;;;;;;15.10;9.80;;;;;;;;;;5058397;28;20270;-89
2022/03/27 04:20:43;;;;;;;18.30;8.80;;;;;;;;;;5069933;28;20255;-89
2022/03/27 04:23:11;;;;;;;16.87;8.77;;;;;;;;;;5057610;28;20252;-89
2022/03/27 04:25:39;;;;;;;18.30;8.70;;;;;;;;;;5056562;28;20671;-90
2022/03/27 04:28:07;;;;;;;15.67;8.50;;;;;;;;;;5049255;28;20199;-89
2022/03/27 04:30:37;;;;;;;13.77;8.07;;;;;;;;;;5048990;28;20209;-89
2022/03/27 04:33:04;;;;;;;21.87;9.50;;;;;;;;;;5039268;28;20292;-89
2022/03/27 04:35:32;;;;;;;19.43;8.07;;;;;;;;;;5057606;28;20283;-89
2022/03/27 04:37:59;;;;;;;15.83;9.10;;;;;;;;;;5048967;28;20234;-89
2022/03/27 04:40:27;;;;;;;15.67;8.40;;;;;;;;;;5049255;28;20201;-89
2022/03/27 04:42:54;;;;;;;10.97;7.60;;;;;;;;;;5068975;28;20245;-90
2022/03/27 04:45:21;;;;;;;10.23;7.87;;;;;;;;;;5071378;28;20241;-89
2022/03/27 04:47:50;;;;;;;14.47;7.50;;;;;;;;;;5073966;28;20276;-90
2022/03/27 04:50:17;;;;;;;11.57;7.83;;;;;;;;;;5071899;28;20216;-89
2022/03/27 04:52:44;;;;;;;12.53;7.90;;;;;;;;;;5065722;28;20186;-89
2022/03/27 04:55:12;;;;;;;17.67;8.23;;;;;;;;;;5077969;28;20233;-89
2022/03/27 04:57:40;;;;;;;13.30;8.13;;;;;;;;;;5081332;28;20190;-89
2022/03/27 05:00:10;;;;;;;16.50;8.83;;;;;;;;;;5067492;28;20189;-90
2022/03/27 05:02:38;;;;;;;18.63;9.07;;;;;;;;;;5078071;28;20280;-89
2022/03/27 05:05:08;;;;;;;12.47;7.07;;;;;;;;;;5081925;28;20269;-90
2022/03/27 05:07:37;;;;;;;13.43;8.47;;;;;;;;;;5066891;28;20203;-89
2022/03/27 05:10:05;;;;;;;14.17;8.30;;;;;;;;;;5068593;28;20202;-90
2022/03/27 05:12:32;;;;;;;15.00;8.57;;;;;;;;;;5088766;28;20196;-89
2022/03/27 05:14:59;;;;;;;15.97;8.50;;;;;;;;;;5093887;28;20217;-89
2022/03/27 05:17:27;;;;;;;14.50;7.30;;;;;;;;;;5066786;28;20262;-89
2022/03/27 05:19:54;;;;;;;17.20;8.73;;;;;;;;;;5073082;28;20231;-89
2022/03/27 05:22:23;;;;;;;15.63;8.67;;;;;;;;;;5066472;28;20264;-89
2022/03/27 05:24:52;;;;;;;17.37;8.00;;;;;;;;;;5045248;28;20287;-89
2022/03/27 05:27:19;;;;;;;15.03;8.27;;;;;;;;;;5066571;28;20217;-89
2022/03/27 05:29:46;;;;;;;15.80;9.03;;;;;;;;;;5053518;28;20202;-89
2022/03/27 05:32:14;;;;;;;17.10;8.37;;;;;;;;;;5048941;28;20256;-89
2022/03/27 05:34:41;;;;;;;15.13;7.73;;;;;;;;;;5036921;28;20251;-89
2022/03/27 05:37:08;;;;;;;13.90;8.20;;;;;;;;;;5058938;28;20297;-89
2022/03/27 05:39:37;;;;;;;16.53;8.40;;;;;;;;;;5063779;28;20197;-89
2022/03/27 05:42:04;;;;;;;15.70;8.87;;;;;;;;;;5071645;28;20221;-89
2022/03/27 05:44:32;;;;;;;10.60;7.43;;;;;;;;;;5042288;28;20238;-89
2022/03/27 05:46:59;;;;;;;13.37;7.80;;;;;;;;;;5050859;28;20205;-89
2022/03/27 05:49:26;;;;;;;15.47;9.67;;;;;;;;;;5053883;28;20213;-89
2022/03/27 05:51:54;;;;;;;15.43;8.70;;;;;;;;;;5047595;28;20637;-89
2022/03/27 05:54:21;;;;;;;16.20;8.83;;;;;;;;;;5041968;28;20234;-89
2022/03/27 05:56:50;;;;;;;17.40;8.80;;;;;;;;;;5038776;28;20201;-89
2022/03/27 05:59:17;;;;;;;17.37;9.07;;;;;;;;;;5054956;28;20194;-89
2022/03/27 06:01:45;;;;;;;15.23;9.27;;;;;;;;;;5048159;28;20226;-89
2022/03/27 06:04:12;;;;;;;13.97;7.97;;;;;;;;;;5037585;28;20228;-89
2022/03/27 06:06:39;;;;;;;18.33;8.70;;;;;;;;;;5063607;28;20259;-89
2022/03/27 06:09:07;;;;;;;15.17;9.37;;;;;;;;;;5049112;28;20232;-89
2022/03/27 06:11:35;;;;;;;15.40;9.23;;;;;;;;;;5050546;28;20299;-88
2022/03/27 06:14:06;;;;;;;18.37;8.90;;;;;;;;;;5053142;28;20747;-89
2022/03/27 06:16:33;;;;;;;15.40;8.63;;;;;;;;;;5054848;28;20205;-89
2022/03/27 06:19:00;;;;;;;14.03;8.50;;;;;;;;;;5051757;28;20213;-89
2022/03/27 06:21:28;;;;;;;16.53;8.33;;;;;;;;;;5051820;28;20206;-89
2022/03/27 06:23:55;;;;;;;15.33;9.20;;;;;;;;;;5054016;28;20260;-89
2022/03/27 06:26:22;;;;;;;20.17;10.37;;;;;;;;;;5047339;28;20210;-89
2022/03/27 06:28:50;;;;;;;15.80;10.67;;;;;;;;;;5047574;28;20210;-90
2022/03/27 06:31:19;;;;;;;14.80;9.47;;;;;;;;;;5052419;28;20214;-89
2022/03/27 06:33:46;;;;;;;15.70;9.63;;;;;;;;;;5049041;28;20198;-89
2022/03/27 06:36:13;;;;;;;19.13;9.30;;;;;;;;;;5044842;28;20198;-89
2022/03/27 06:38:41;;;;;;;22.37;12.07;;;;;;;;;;5045174;28;20230;-89
2022/03/27 06:41:08;;;;;;;15.40;10.20;;;;;;;;;;5048738;28;20218;-89
2022/03/27 06:43:37;;;;;;;15.63;10.00;;;;;;;;;;5040823;28;20214;-89
2022/03/27 06:46:05;;;;;;;14.13;9.33;;;;;;;;;;5040891;28;20228;-89
2022/03/27 06:48:33;;;;;;;17.40;9.40;;;;;;;;;;5049150;28;20213;-89
2022/03/27 06:51:01;;;;;;;16.40;8.93;;;;;;;;;;5045547;28;20206;-89
2022/03/27 06:53:28;;;;;;;16.27;9.70;;;;;;;;;;5037386;28;20714;-89
2022/03/27 06:55:55;;;;;;;14.97;9.87;;;;;;;;;;5050709;28;20647;-89
2022/03/27 06:58:23;;;;;;;15.50;8.97;;;;;;;;;;5051189;28;20790;-89
2022/03/27 07:03:36;;;;;;;18.47;9.73;;;;;;;;;;5049612;28;20226;-89
2022/03/27 07:06:04;;;;;;;17.50;9.93;;;;;;;;;;5072073;28;20293;-87
2022/03/27 07:08:31;;;;;;;19.60;9.93;;;;;;;;;;5074117;28;20274;-87
2022/03/27 07:10:58;;;;;;;20.17;10.10;;;;;;;;;;5057830;28;20211;-87
2022/03/27 07:13:26;;;;;;;17.77;11.77;;;;;;;;;;5052742;28;20204;-87
2022/03/27 07:15:54;;;;;;;16.90;10.40;;;;;;;;;;5071204;28;20236;-86
2022/03/27 07:18:22;;;;;;;15.73;10.23;;;;;;;;;;5062366;28;20230;-87
2022/03/27 07:20:51;;;;;;;16.13;10.30;;;;;;;;;;5067692;28;20217;-87
2022/03/27 07:23:20;;;;;;;15.67;9.77;;;;;;;;;;5053040;28;20589;-87
2022/03/27 07:25:48;;;;;;;16.83;10.53;;;;;;;;;;5041035;28;20767;-87
2022/03/27 07:28:16;;;;;;;18.13;10.60;;;;;;;;;;5051768;28;20198;-87
2022/03/27 07:30:45;;;;;;;16.87;10.53;;;;;;;;;;5057180;28;20734;-87
2022/03/27 07:33:13;;;;;;;18.33;10.33;;;;;;;;;;5047064;28;20209;-87
2022/03/27 07:35:40;;;;;;;16.33;11.23;;;;;;;;;;5038339;28;20300;-87
2022/03/27 07:38:09;;;;;;;16.20;10.83;;;;;;;;;;5048964;28;20243;-87
2022/03/27 07:40:37;;;;;;;19.37;10.87;;;;;;;;;;5049822;28;20233;-87
2022/03/27 07:43:04;;;;;;;17.13;11.03;;;;;;;;;;5040539;28;20307;-87
2022/03/27 07:45:32;;;;;;;18.93;11.33;;;;;;;;;;5043826;28;20234;-87
2022/03/27 07:48:00;;;;;;;18.40;11.00;;;;;;;;;;5057484;28;20568;-87
2022/03/27 07:50:30;;;;;;;19.90;10.93;;;;;;;;;;5050213;28;20221;-87
2022/03/27 07:52:58;;;;;;;18.43;10.17;;;;;;;;;;5046247;28;20693;-87
2022/03/27 07:55:26;;;;;;;14.13;10.20;;;;;;;;;;5059069;28;20654;-87
2022/03/27 07:57:54;;;;;;;17.03;11.47;;;;;;;;;;5067995;28;20209;-87
2022/03/27 08:00:21;;;;;;;17.53;10.97;;;;;;;;;;5052812;28;20209;-87
2022/03/27 08:02:48;;;;;;;23.30;9.77;;;;;;;;;;5051807;28;20222;-87
2022/03/27 08:05:16;;;;;;;19.13;10.50;;;;;;;;;;5061517;28;20217;-87
2022/03/27 08:07:45;;;;;;;18.73;11.27;;;;;;;;;;5066399;28;20240;-87
2022/03/27 08:10:14;;;;;;;16.30;10.17;;;;;;;;;;5044882;28;20202;-87
2022/03/27 08:12:43;;;;;;;17.53;10.60;;;;;;;;;;5061024;28;20201;-87
2022/03/27 08:15:11;;;;;;;16.80;9.60;;;;;;;;;;5068929;28;20253;-87
2022/03/27 08:17:39;;;;;;;16.87;10.77;;;;;;;;;;5051893;28;20246;-87
2022/03/27 08:20:06;;;;;;;20.77;10.33;;;;;;;;;;5061241;28;20216;-87
2022/03/27 08:22:34;;;;;;;17.27;10.33;;;;;;;;;;5068755;28;20217;-87
2022/03/27 08:25:01;;;;;;;18.17;9.90;;;;;;;;;;5052162;28;20316;-87
2022/03/27 08:27:27;;;;;;;15.93;10.13;;;;;;;;;;5042421;28;20653;-87
2022/03/27 08:29:56;;;;;;;15.13;9.93;;;;;;;;;;5059376;28;20197;-87
2022/03/27 08:32:23;;;;;;;16.77;10.30;;;;;;;;;;5068976;28;20700;-88
2022/03/27 08:34:51;;;;;;;14.33;10.13;;;;;;;;;;5048003;28;20689;-87
2022/03/27 08:37:18;;;;;;;17.77;10.17;;;;;;;;;;5042498;28;20212;-87
2022/03/27 08:39:46;;;;;;;12.87;9.33;;;;;;;;;;5056360;28;20209;-87
2022/03/27 08:42:16;;;;;;;17.33;9.53;;;;;;;;;;5067480;28;20243;-87
2022/03/27 08:44:43;;;;;;;16.33;9.20;;;;;;;;;;5041737;28;20242;-87
2022/03/27 08:47:19;;;;;;;15.53;9.63;;;;;;;;;;5027407;28;20216;-87
2022/03/27 08:49:49;;;;;;;16.73;10.07;;;;;;;;;;5044531;28;20212;-87
2022/03/27 08:52:36;;;;;;;17.17;10.57;;;;;;;;;;5057546;28;20279;-87
2022/03/27 08:55:05;;;;;;;15.00;9.03;;;;;;;;;;5040804;28;20230;-87
2022/03/27 08:57:37;;;;;;;16.40;9.77;;;;;;;;;;5055243;28;20204;-88
2022/03/27 09:00:06;;;;;;;18.27;9.67;;;;;;;;;;5072601;28;20652;-88
2022/03/27 09:02:35;;;;;;;12.97;8.97;;;;;;;;;;5072485;28;20666;-88
2022/03/27 09:05:04;;;;;;;17.10;8.23;;;;;;;;;;5040055;28;20784;-88
2022/03/27 09:07:32;;;;;;;18.67;9.03;;;;;;;;;;5058244;28;20259;-89
2022/03/27 09:09:59;;;;;;;14.00;8.67;;;;;;;;;;5071329;28;20212;-88
2022/03/27 09:12:27;;;;;;;12.67;8.27;;;;;;;;;;5056349;28;20209;-87
2022/03/27 09:14:54;;;;;;;13.30;8.57;;;;;;;;;;5052640;28;20226;-88
2022/03/27 09:17:22;;;;;;;16.13;8.10;;;;;;;;;;5053310;28;20683;-88
2022/03/27 09:19:51;;;;;;;13.07;7.77;;;;;;;;;;5047413;28;20206;-88
2022/03/27 09:22:21;;;;;;;15.90;8.57;;;;;;;;;;5040763;28;20217;-88
2022/03/27 09:24:49;;;;;;;15.63;7.83;;;;;;;;;;5059678;28;20315;-87
2022/03/27 09:27:17;;;;;;;15.57;8.50;;;;;;;;;;5051140;28;20209;-88
2022/03/27 09:30:06;;;;;;;13.47;8.10;;;;;;;;;;5048672;28;20210;-88
2022/03/27 09:32:35;;;;;;;13.37;8.33;;;;;;;;;;5061889;28;20202;-88
2022/03/27 09:35:05;;;;;;;17.03;8.53;;;;;;;;;;5071971;28;20225;-88
2022/03/27 09:37:33;;;;;;;14.47;8.37;;;;;;;;;;5052029;28;20264;-89
2022/03/27 09:40:02;;;;;;;14.47;7.87;;;;;;;;;;5055545;28;20212;-89
2022/03/27 09:42:30;;;;;;;15.20;8.00;;;;;;;;;;5057139;28;20202;-89
2022/03/27 09:45:14;;;;;;;14.60;7.97;;;;;;;;;;5039976;28;20702;-88
2022/03/27 09:47:41;;;;;;;16.80;8.30;;;;;;;;;;5047512;28;20221;-89
2022/03/27 09:50:11;;;;;;;15.17;8.60;;;;;;;;;;5046003;28;20206;-89
2022/03/27 09:52:38;;;;;;;13.43;8.17;;;;;;;;;;5059061;28;20275;-89
2022/03/27 09:55:07;;;;;;;16.07;8.53;;;;;;;;;;5071720;28;20229;-89
2022/03/27 09:57:35;;;;;;;15.77;8.50;;;;;;;;;;5043042;28;20206;-89
2022/03/27 10:00:14;;;;;;;17.07;8.23;;;;;;;;;;5056329;28;20217;-89
2022/03/27 10:02:41;;;;;;;11.60;7.60;;;;;;;;;;5075394;28;20285;-89
2022/03/27 10:05:10;;;;;;;17.80;8.63;;;;;;;;;;5055253;28;20749;-89
2022/03/27 10:07:39;;;;;;;18.77;8.40;;;;;;;;;;5054324;28;20565;-89
2022/03/27 10:10:07;;;;;;;14.83;8.40;;;;;;;;;;5054732;28;20206;-89
2022/03/27 10:12:37;;;;;;;13.27;7.70;;;;;;;;;;5050697;28;20671;-88
2022/03/27 10:15:06;;;;;;;15.57;7.80;;;;;;;;;;5067467;28;20312;-89
2022/03/27 10:17:34;;;;;;;21.17;9.17;;;;;;;;;;5075260;28;20209;-89
2022/03/27 10:20:04;;;;;;;15.03;8.83;;;;;;;;;;5059861;28;20249;-89
2022/03/27 10:22:37;;;;;;;17.10;8.53;;;;;;;;;;5054577;28;20210;-89
2022/03/27 10:25:07;;;;;;;17.10;8.00;;;;;;;;;;5054865;28;20227;-90
2022/03/27 10:27:35;;;;;;;11.07;7.00;;;;;;;;;;5050025;28;20295;-89
2022/03/27 10:30:03;;;;;;;14.97;7.17;;;;;;;;;;5054087;28;20206;-89
2022/03/27 10:32:32;;;;;;;14.50;7.67;;;;;;;;;;5074641;28;20201;-89
2022/03/27 10:35:15;;;;;;;14.20;7.27;;;;;;;;;;5059249;28;20226;-89
2022/03/27 10:37:46;;;;;;;13.40;7.40;;;;;;;;;;5051815;28;20300;-88
2022/03/27 10:40:17;;;;;;;20.10;8.07;;;;;;;;;;5047241;28;20242;-89
2022/03/27 10:42:56;;;;;;;14.93;7.43;;;;;;;;;;5054401;28;20293;-88
2022/03/27 10:45:23;;;;;;;15.10;7.37;;;;;;;;;;5041505;28;20238;-89
2022/03/27 10:48:10;;;;;;;15.13;7.43;;;;;;;;;;5060866;28;20278;-88
2022/03/27 10:50:46;;;;;;;13.17;6.93;;;;;;;;;;5054572;28;20221;-88
2022/03/27 10:53:14;;;;;;;16.13;7.57;;;;;;;;;;5048415;28;20216;-88
2022/03/27 10:55:44;;;;;;;14.90;7.80;;;;;;;;;;5041645;28;20633;-89
2022/03/27 10:58:28;;;;;;;17.50;7.37;;;;;;;;;;5052483;28;20700;-88
2022/03/27 11:00:55;;;;;;;11.13;7.50;;;;;;;;;;5052235;28;20243;-88
2022/03/27 11:03:40;;;;;;;15.20;6.80;;;;;;;;;;5063806;28;20649;-88
2022/03/27 11:06:20;;;;;;;16.27;6.83;;;;;;;;;;5046395;28;20230;-88
2022/03/27 11:08:49;;;;;;;14.23;7.30;;;;;;;;;;5055506;28;20277;-88
2022/03/27 11:11:35;;;;;;;12.53;6.60;;;;;;;;;;5047649;28;20221;-88
2022/03/27 11:14:03;;;;;;;16.93;6.40;;;;;;;;;;5057358;28;20279;-88
2022/03/27 11:16:30;;;;;;;12.47;5.53;;;;;;;;;;5052478;28;20790;-88
2022/03/27 11:18:58;;;;;;;15.07;6.63;;;;;;;;;;5057789;28;20213;-88
2022/03/27 11:21:41;;;;;;;7.97;5.60;;;;;;;;;;5043978;28;20216;-88
2022/03/27 11:24:35;;;;;;;12.50;5.53;;;;;;;;;;5065605;28;20283;-88
2022/03/27 11:27:03;;;;;;;14.70;6.93;;;;;;;;;;5016320;28;20661;-88
2022/03/27 11:29:32;;;;;;;11.70;6.80;;;;;;;;;;5046102;28;20283;-88
2022/03/27 11:32:08;;;;;;;11.57;5.27;;;;;;;;;;5040387;28;20231;-88
2022/03/27 11:34:35;;;;;;;15.17;6.70;;;;;;;;;;5056208;28;20233;-88
2022/03/27 11:37:13;;;;;;;13.67;6.60;;;;;;;;;;5052370;28;20209;-88
2022/03/27 11:39:40;;;;;;;13.80;7.07;;;;;;;;;;5043164;28;20678;-88
2022/03/27 11:42:29;;;;;;;18.77;7.30;;;;;;;;;;5056434;28;20578;-88
2022/03/27 11:45:13;;;;;;;12.30;6.00;;;;;;;;;;5051411;28;20236;-88
2022/03/27 11:47:41;;;;;;;11.73;5.70;;;;;;;;;;5040809;28;20245;-88
2022/03/27 11:50:09;;;;;;;12.37;5.57;;;;;;;;;;5048371;28;20645;-88
2022/03/27 11:52:36;;;;;;;13.27;6.60;;;;;;;;;;5051742;28;20280;-88
2022/03/27 11:55:05;;;;;;;13.90;6.37;;;;;;;;;;5045104;28;20696;-88
2022/03/27 11:57:43;;;;;;;10.27;5.93;;;;;;;;;;5056529;28;20216;-88
2022/03/27 12:00:11;;;;;;;13.13;5.67;;;;;;;;;;5063672;28;20212;-88
2022/03/27 12:02:42;;;;;;;9.57;5.33;;;;;;;;;;5071495;28;20255;-88
2022/03/27 12:05:10;;;;;;;12.57;5.90;;;;;;;;;;5050540;28;20251;-88
2022/03/27 12:07:52;;;;;;;10.27;5.13;;;;;;;;;;5058107;28;20233;-88
2022/03/27 12:10:19;;;;;;;13.60;6.10;;;;;;;;;;5031817;28;20211;-88
2022/03/27 12:12:58;;;;;;;9.00;5.23;;;;;;;;;;5033860;28;20274;-88
2022/03/27 12:15:36;;;;;;;9.40;5.27;;;;;;;;;;5044881;28;20222;-88
2022/03/27 12:18:03;;;;;;;11.83;6.10;;;;;;;;;;5061830;28;20232;-88
2022/03/27 12:20:31;;;;;;;11.23;5.23;;;;;;;;;;5063092;28;20205;-88
2022/03/27 12:22:58;;;;;;;10.20;5.00;;;;;;;;;;5054963;28;20224;-88
2022/03/27 12:25:26;;;;;;;12.93;4.77;;;;;;;;;;5058373;28;20232;-88
2022/03/27 12:30:47;;;;;;;13.43;5.57;;;;;;;;;;5043111;28;20266;-88
2022/03/27 12:33:14;;;;;;;9.17;5.70;;;;;;;;;;5060357;28;20202;-88
2022/03/27 12:35:42;;;;;;;8.33;5.17;;;;;;;;;;5066204;28;20784;-88
2022/03/27 12:38:09;;;;;;;9.93;5.70;;;;;;;;;;5061888;28;20229;-88
2022/03/27 12:40:44;;;;;;;8.37;4.63;;;;;;;;;;5050491;28;20228;-88
2022/03/27 12:43:13;;;;;;;11.63;5.40;;;;;;;;;;5058332;28;20197;-88
2022/03/27 12:45:41;;;;;;;9.23;5.93;;;;;;;;;;5050165;28;20281;-88
2022/03/27 12:48:18;;;;;;;9.37;5.20;;;;;;;;;;5048437;28;20205;-88
2022/03/27 12:50:47;;;;;;;9.43;5.17;;;;;;;;;;5058559;28;20206;-88
2022/03/27 12:53:15;;;;;;;14.33;5.23;;;;;;;;;;5050466;28;20209;-88
2022/03/27 12:55:44;;;;;;;10.20;5.20;;;;;;;;;;5045194;28;20229;-89
2022/03/27 12:58:14;;;;;;;10.23;5.17;;;;;;;;;;5043251;28;20202;-88
2022/03/27 13:00:45;;;;;;;8.87;4.97;;;;;;;;;;5050595;28;20210;-88
2022/03/27 13:03:13;;;;;;;9.33;4.90;;;;;;;;;;5050749;28;20234;-88
2022/03/27 13:05:41;;;;;;;10.87;5.17;;;;;;;;;;5036921;28;20332;-88
2022/03/27 13:08:09;;;;;;;15.93;5.93;;;;;;;;;;5049805;28;20241;-88
2022/03/27 13:10:39;;;;;;;8.77;5.37;;;;;;;;;;5050767;28;20245;-88
2022/03/27 13:13:07;;;;;;;12.43;5.27;;;;;;;;;;5046116;28;20209;-88
2022/03/27 13:15:40;;;;;;;11.57;6.00;;;;;;;;;;5052527;28;20600;-88
2022/03/27 13:18:09;;;;;;;10.93;5.80;;;;;;;;;;5058223;28;20259;-88
2022/03/27 13:20:36;;;;;;;9.77;5.93;;;;;;;;;;5047697;28;20301;-88
2022/03/27 13:23:04;;;;;;;9.37;5.77;;;;;;;;;;5059241;28;20572;-88
2022/03/27 13:25:32;;;;;;;10.17;6.10;;;;;;;;;;5062030;28;20229;-88
2022/03/27 13:27:59;;;;;;;12.80;5.33;;;;;;;;;;5070174;28;20251;-88
2022/03/27 13:30:27;;;;;;;10.73;5.93;;;;;;;;;;5069796;28;20238;-88
2022/03/27 13:32:57;;;;;;;7.50;5.30;;;;;;;;;;5049242;28;20229;-88
2022/03/27 13:35:24;;;;;;;11.90;5.77;;;;;;;;;;5053974;28;20311;-88
2022/03/27 13:37:53;;;;;;;12.00;5.90;;;;;;;;;;5054263;28;20278;-88
2022/03/27 13:40:21;;;;;;;8.60;5.63;;;;;;;;;;5047232;28;20643;-88
2022/03/27 13:43:00;;;;;;;11.33;5.63;;;;;;;;;;5051425;28;20234;-88
2022/03/27 13:45:29;;;;;;;13.87;6.03;;;;;;;;;;5065123;28;20237;-89
2022/03/27 13:47:58;;;;;;;11.53;5.60;;;;;;;;;;5073803;28;20645;-88
2022/03/27 13:50:26;;;;;;;12.90;6.27;;;;;;;;;;5057674;28;20213;-88
2022/03/27 13:52:53;;;;;;;10.60;5.40;;;;;;;;;;5061210;28;20206;-88
2022/03/27 13:55:21;;;;;;;8.33;5.43;;;;;;;;;;5073172;28;20641;-88
2022/03/27 13:57:48;;;;;;;12.07;6.40;;;;;;;;;;5054171;28;20214;-88
2022/03/27 14:00:16;;;;;;;13.87;6.00;;;;;;;;;;5068642;28;20202;-88
2022/03/27 14:02:43;;;;;;;11.23;5.93;;;;;;;;;;5069802;28;20197;-88
2022/03/27 14:05:12;;;;;;;13.30;5.97;;;;;;;;;;5072916;28;20279;-88
2022/03/27 14:07:39;;;;;;;10.90;5.40;;;;;;;;;;5051323;28;20210;-88
2022/03/27 14:10:07;;;;;;;15.37;5.93;;;;;;;;;;5063859;28;20729;-89
2022/03/27 14:12:34;;;;;;;10.47;5.87;;;;;;;;;;5073425;28;20216;-88
2022/03/27 14:15:03;;;;;;;12.10;5.67;;;;;;;;;;5058915;28;20226;-88
2022/03/27 14:17:30;;;;;;;14.37;6.53;;;;;;;;;;5061415;28;20220;-88
2022/03/27 14:19:58;;;;;;;11.70;6.13;;;;;;;;;;5053446;28;20212;-88
2022/03/27 14:22:26;;;;;;;12.70;6.43;;;;;;;;;;5051553;28;20740;-88
2022/03/27 14:24:54;;;;;;;13.23;6.90;;;;;;;;;;5048494;28;20277;-88
2022/03/27 14:27:22;;;;;;;9.70;5.50;;;;;;;;;;5065754;28;20255;-88
2022/03/27 14:29:49;;;;;;;19.20;7.10;;;;;;;;;;5073333;28;20296;-88
2022/03/27 14:32:17;;;;;;;11.73;6.70;;;;;;;;;;5051982;28;20791;-88
2022/03/27 14:34:45;;;;;;;12.20;6.27;;;;;;;;;;5057152;28;20229;-88
2022/03/27 14:37:14;;;;;;;13.73;7.00;;;;;;;;;;5053287;28;20217;-88
2022/03/27 14:39:43;;;;;;;16.17;6.80;;;;;;;;;;5050823;28;20631;-88
2022/03/27 14:42:10;;;;;;;14.17;5.77;;;;;;;;;;5042944;28;20363;-88
2022/03/27 14:44:38;;;;;;;11.97;6.33;;;;;;;;;;5056071;28;20226;-88